sensor_id;sensor_type;location;lat;lon;timestamp;P1;durP1;ratioP1;P2;durP2;ratioP2
36443;SDS011;24692;45.642;13.806;2022-07-23T00:00:52;24.13;;;19.42;;
36443;SDS011;24692;45.642;13.806;2022-07-23T00:03:18;20.35;;;18.33;;
36443;SDS011;24692;45.642;13.806;2022-07-23T00:05:44;21.02;;;18.58;;
36443;SDS011;24692;45.642;13.806;2022-07-23T00:08:09;21.17;;;17.88;;
36443;SDS011;24692;45.642;13.806;2022-07-23T00:10:35;21.02;;;18.88;;
36443;SDS011;24692;45.642;13.806;2022-07-23T00:13:01;23.13;;;18.15;;
36443;SDS011;24692;45.642;13.806;2022-07-23T00:15:26;20.58;;;18.38;;
36443;SDS011;24692;45.642;13.806;2022-07-23T00:17:52;20.35;;;18.25;;
36443;SDS011;24692;45.642;13.806;2022-07-23T00:20:18;22.60;;;18.70;;
36443;SDS011;24692;45.642;13.806;2022-07-23T00:22:47;19.73;;;17.63;;
36443;SDS011;24692;45.642;13.806;2022-07-23T00:25:14;22.25;;;18.52;;
36443;SDS011;24692;45.642;13.806;2022-07-23T00:27:40;20.70;;;18.50;;
36443;SDS011;24692;45.642;13.806;2022-07-23T00:30:06;20.70;;;18.55;;
36443;SDS011;24692;45.642;13.806;2022-07-23T00:32:32;20.23;;;18.10;;
36443;SDS011;24692;45.642;13.806;2022-07-23T00:35:09;21.00;;;17.58;;
36443;SDS011;24692;45.642;13.806;2022-07-23T00:37:34;22.80;;;18.83;;
36443;SDS011;24692;45.642;13.806;2022-07-23T00:40:00;20.92;;;18.73;;
36443;SDS011;24692;45.642;13.806;2022-07-23T00:42:26;20.52;;;18.02;;
36443;SDS011;24692;45.642;13.806;2022-07-23T00:44:51;20.33;;;18.13;;
36443;SDS011;24692;45.642;13.806;2022-07-23T00:47:17;20.98;;;18.73;;
36443;SDS011;24692;45.642;13.806;2022-07-23T00:49:43;20.13;;;18.02;;
36443;SDS011;24692;45.642;13.806;2022-07-23T00:52:08;21.35;;;18.10;;
36443;SDS011;24692;45.642;13.806;2022-07-23T00:54:34;21.67;;;18.50;;
36443;SDS011;24692;45.642;13.806;2022-07-23T00:57:00;20.80;;;18.67;;
36443;SDS011;24692;45.642;13.806;2022-07-23T00:59:26;19.83;;;17.77;;
36443;SDS011;24692;45.642;13.806;2022-07-23T01:01:51;21.80;;;18.20;;
36443;SDS011;24692;45.642;13.806;2022-07-23T01:04:17;20.77;;;18.52;;
36443;SDS011;24692;45.642;13.806;2022-07-23T01:06:43;21.95;;;19.60;;
36443;SDS011;24692;45.642;13.806;2022-07-23T01:09:10;21.17;;;18.98;;
36443;SDS011;24692;45.642;13.806;2022-07-23T01:11:36;21.38;;;19.27;;
36443;SDS011;24692;45.642;13.806;2022-07-23T01:14:12;22.70;;;18.70;;
36443;SDS011;24692;45.642;13.806;2022-07-23T01:16:40;23.65;;;20.75;;
36443;SDS011;24692;45.642;13.806;2022-07-23T01:19:06;23.73;;;21.20;;
36443;SDS011;24692;45.642;13.806;2022-07-23T01:21:36;25.65;;;20.70;;
36443;SDS011;24692;45.642;13.806;2022-07-23T01:24:03;23.35;;;20.95;;
36443;SDS011;24692;45.642;13.806;2022-07-23T01:26:29;25.70;;;21.75;;
36443;SDS011;24692;45.642;13.806;2022-07-23T01:28:55;23.13;;;20.73;;
36443;SDS011;24692;45.642;13.806;2022-07-23T01:31:21;25.20;;;21.33;;
36443;SDS011;24692;45.642;13.806;2022-07-23T01:33:47;27.02;;;21.33;;
36443;SDS011;24692;45.642;13.806;2022-07-23T01:36:13;25.00;;;21.02;;
36443;SDS011;24692;45.642;13.806;2022-07-23T01:38:38;24.23;;;21.73;;
36443;SDS011;24692;45.642;13.806;2022-07-23T01:41:04;24.10;;;21.45;;
36443;SDS011;24692;45.642;13.806;2022-07-23T01:43:30;24.33;;;21.73;;
36443;SDS011;24692;45.642;13.806;2022-07-23T01:45:55;24.55;;;21.92;;
36443;SDS011;24692;45.642;13.806;2022-07-23T01:48:21;23.58;;;20.85;;
36443;SDS011;24692;45.642;13.806;2022-07-23T01:50:47;25.77;;;21.58;;
36443;SDS011;24692;45.642;13.806;2022-07-23T01:53:13;25.02;;;21.05;;
36443;SDS011;24692;45.642;13.806;2022-07-23T01:55:39;24.08;;;21.50;;
36443;SDS011;24692;45.642;13.806;2022-07-23T01:58:05;25.27;;;21.05;;
36443;SDS011;24692;45.642;13.806;2022-07-23T02:00:31;23.15;;;20.70;;
36443;SDS011;24692;45.642;13.806;2022-07-23T02:02:56;24.98;;;20.58;;
36443;SDS011;24692;45.642;13.806;2022-07-23T02:05:25;22.90;;;20.50;;
36443;SDS011;24692;45.642;13.806;2022-07-23T02:07:53;23.42;;;21.00;;
36443;SDS011;24692;45.642;13.806;2022-07-23T02:10:19;23.05;;;20.75;;
36443;SDS011;24692;45.642;13.806;2022-07-23T02:12:45;24.08;;;21.48;;
36443;SDS011;24692;45.642;13.806;2022-07-23T02:15:11;23.75;;;21.17;;
36443;SDS011;24692;45.642;13.806;2022-07-23T02:17:37;23.52;;;20.55;;
36443;SDS011;24692;45.642;13.806;2022-07-23T02:20:03;22.67;;;20.27;;
36443;SDS011;24692;45.642;13.806;2022-07-23T02:22:30;25.95;;;21.08;;
36443;SDS011;24692;45.642;13.806;2022-07-23T02:24:55;23.02;;;20.67;;
36443;SDS011;24692;45.642;13.806;2022-07-23T02:27:21;22.95;;;20.35;;
36443;SDS011;24692;45.642;13.806;2022-07-23T02:29:48;24.58;;;21.38;;
36443;SDS011;24692;45.642;13.806;2022-07-23T02:32:14;22.23;;;19.88;;
36443;SDS011;24692;45.642;13.806;2022-07-23T02:34:39;24.67;;;20.20;;
36443;SDS011;24692;45.642;13.806;2022-07-23T02:37:05;25.27;;;20.85;;
36443;SDS011;24692;45.642;13.806;2022-07-23T02:39:31;25.08;;;21.38;;
36443;SDS011;24692;45.642;13.806;2022-07-23T02:41:57;22.88;;;20.38;;
36443;SDS011;24692;45.642;13.806;2022-07-23T02:44:22;23.85;;;20.48;;
36443;SDS011;24692;45.642;13.806;2022-07-23T02:46:48;29.65;;;20.85;;
36443;SDS011;24692;45.642;13.806;2022-07-23T02:49:13;23.60;;;19.88;;
36443;SDS011;24692;45.642;13.806;2022-07-23T02:51:39;21.95;;;19.65;;
36443;SDS011;24692;45.642;13.806;2022-07-23T02:54:05;21.30;;;18.98;;
36443;SDS011;24692;45.642;13.806;2022-07-23T02:56:30;23.13;;;19.23;;
36443;SDS011;24692;45.642;13.806;2022-07-23T02:58:57;21.58;;;19.27;;
36443;SDS011;24692;45.642;13.806;2022-07-23T03:01:22;23.30;;;19.08;;
36443;SDS011;24692;45.642;13.806;2022-07-23T03:03:48;21.55;;;18.42;;
36443;SDS011;24692;45.642;13.806;2022-07-23T03:06:13;22.67;;;18.55;;
36443;SDS011;24692;45.642;13.806;2022-07-23T03:08:39;19.63;;;17.63;;
36443;SDS011;24692;45.642;13.806;2022-07-23T03:11:05;19.90;;;17.80;;
36443;SDS011;24692;45.642;13.806;2022-07-23T03:13:36;20.95;;;18.80;;
36443;SDS011;24692;45.642;13.806;2022-07-23T03:16:02;20.40;;;18.08;;
36443;SDS011;24692;45.642;13.806;2022-07-23T03:18:28;20.45;;;18.27;;
36443;SDS011;24692;45.642;13.806;2022-07-23T03:20:54;22.00;;;18.65;;
36443;SDS011;24692;45.642;13.806;2022-07-23T03:23:20;20.80;;;18.40;;
36443;SDS011;24692;45.642;13.806;2022-07-23T03:25:45;20.67;;;18.08;;
36443;SDS011;24692;45.642;13.806;2022-07-23T03:28:14;23.17;;;19.00;;
36443;SDS011;24692;45.642;13.806;2022-07-23T03:30:44;21.38;;;19.08;;
36443;SDS011;24692;45.642;13.806;2022-07-23T03:33:14;20.42;;;18.17;;
36443;SDS011;24692;45.642;13.806;2022-07-23T03:35:42;21.63;;;19.35;;
36443;SDS011;24692;45.642;13.806;2022-07-23T03:38:08;19.73;;;17.55;;
36443;SDS011;24692;45.642;13.806;2022-07-23T03:40:34;20.77;;;18.58;;
36443;SDS011;24692;45.642;13.806;2022-07-23T03:42:59;21.10;;;18.90;;
36443;SDS011;24692;45.642;13.806;2022-07-23T03:45:25;23.35;;;19.60;;
36443;SDS011;24692;45.642;13.806;2022-07-23T03:47:51;24.05;;;20.75;;
36443;SDS011;24692;45.642;13.806;2022-07-23T03:50:17;24.15;;;21.65;;
36443;SDS011;24692;45.642;13.806;2022-07-23T03:52:42;26.33;;;23.45;;
36443;SDS011;24692;45.642;13.806;2022-07-23T03:55:08;26.65;;;23.15;;
36443;SDS011;24692;45.642;13.806;2022-07-23T03:57:34;29.35;;;25.52;;
36443;SDS011;24692;45.642;13.806;2022-07-23T04:00:00;29.52;;;26.20;;
36443;SDS011;24692;45.642;13.806;2022-07-23T04:02:27;31.45;;;27.73;;
36443;SDS011;24692;45.642;13.806;2022-07-23T04:04:53;32.25;;;28.88;;
36443;SDS011;24692;45.642;13.806;2022-07-23T04:07:18;31.88;;;28.55;;
36443;SDS011;24692;45.642;13.806;2022-07-23T04:09:44;36.13;;;31.80;;
36443;SDS011;24692;45.642;13.806;2022-07-23T04:12:10;37.15;;;33.13;;
36443;SDS011;24692;45.642;13.806;2022-07-23T04:14:35;39.80;;;35.25;;
36443;SDS011;24692;45.642;13.806;2022-07-23T04:17:01;43.22;;;36.17;;
36443;SDS011;24692;45.642;13.806;2022-07-23T04:19:27;40.35;;;35.72;;
36443;SDS011;24692;45.642;13.806;2022-07-23T04:21:53;41.67;;;35.83;;
36443;SDS011;24692;45.642;13.806;2022-07-23T04:24:19;41.15;;;35.63;;
36443;SDS011;24692;45.642;13.806;2022-07-23T04:26:44;40.30;;;34.80;;
36443;SDS011;24692;45.642;13.806;2022-07-23T04:29:10;44.80;;;37.42;;
36443;SDS011;24692;45.642;13.806;2022-07-23T04:31:36;44.22;;;37.17;;
36443;SDS011;24692;45.642;13.806;2022-07-23T04:34:02;41.75;;;37.25;;
36443;SDS011;24692;45.642;13.806;2022-07-23T04:36:28;42.88;;;37.78;;
36443;SDS011;24692;45.642;13.806;2022-07-23T04:38:54;39.78;;;35.58;;
36443;SDS011;24692;45.642;13.806;2022-07-23T04:41:19;40.63;;;36.35;;
36443;SDS011;24692;45.642;13.806;2022-07-23T04:43:45;41.75;;;35.05;;
36443;SDS011;24692;45.642;13.806;2022-07-23T04:46:11;43.65;;;37.22;;
36443;SDS011;24692;45.642;13.806;2022-07-23T04:48:37;40.88;;;36.05;;
36443;SDS011;24692;45.642;13.806;2022-07-23T04:51:03;41.47;;;36.22;;
36443;SDS011;24692;45.642;13.806;2022-07-23T04:53:29;41.63;;;35.40;;
36443;SDS011;24692;45.642;13.806;2022-07-23T04:55:55;40.03;;;34.40;;
36443;SDS011;24692;45.642;13.806;2022-07-23T04:58:20;38.97;;;33.67;;
36443;SDS011;24692;45.642;13.806;2022-07-23T05:00:46;35.50;;;31.73;;
36443;SDS011;24692;45.642;13.806;2022-07-23T05:03:12;32.17;;;28.65;;
36443;SDS011;24692;45.642;13.806;2022-07-23T05:05:38;30.20;;;26.80;;
36443;SDS011;24692;45.642;13.806;2022-07-23T05:08:03;29.10;;;25.70;;
36443;SDS011;24692;45.642;13.806;2022-07-23T05:10:29;30.35;;;25.95;;
36443;SDS011;24692;45.642;13.806;2022-07-23T05:12:55;31.30;;;25.90;;
36443;SDS011;24692;45.642;13.806;2022-07-23T05:15:21;30.75;;;26.40;;
36443;SDS011;24692;45.642;13.806;2022-07-23T05:17:47;28.23;;;25.30;;
36443;SDS011;24692;45.642;13.806;2022-07-23T05:20:12;31.80;;;25.35;;
36443;SDS011;24692;45.642;13.806;2022-07-23T05:22:38;28.42;;;23.95;;
36443;SDS011;24692;45.642;13.806;2022-07-23T05:25:05;27.70;;;23.15;;
36443;SDS011;24692;45.642;13.806;2022-07-23T05:27:31;25.30;;;22.20;;
36443;SDS011;24692;45.642;13.806;2022-07-23T05:29:56;24.80;;;21.98;;
36443;SDS011;24692;45.642;13.806;2022-07-23T05:32:23;26.33;;;21.42;;
36443;SDS011;24692;45.642;13.806;2022-07-23T05:34:49;24.70;;;22.20;;
36443;SDS011;24692;45.642;13.806;2022-07-23T05:37:15;24.88;;;22.38;;
36443;SDS011;24692;45.642;13.806;2022-07-23T05:39:41;25.45;;;22.40;;
36443;SDS011;24692;45.642;13.806;2022-07-23T05:42:06;24.50;;;21.90;;
36443;SDS011;24692;45.642;13.806;2022-07-23T05:44:32;24.67;;;22.17;;
36443;SDS011;24692;45.642;13.806;2022-07-23T05:46:58;23.67;;;21.30;;
36443;SDS011;24692;45.642;13.806;2022-07-23T05:49:24;26.20;;;23.40;;
36443;SDS011;24692;45.642;13.806;2022-07-23T05:51:50;29.27;;;22.10;;
36443;SDS011;24692;45.642;13.806;2022-07-23T05:54:15;25.98;;;21.95;;
36443;SDS011;24692;45.642;13.806;2022-07-23T05:56:41;23.80;;;21.13;;
36443;SDS011;24692;45.642;13.806;2022-07-23T05:59:07;25.20;;;22.33;;
36443;SDS011;24692;45.642;13.806;2022-07-23T06:01:33;23.80;;;21.20;;
36443;SDS011;24692;45.642;13.806;2022-07-23T06:03:58;23.27;;;20.75;;
36443;SDS011;24692;45.642;13.806;2022-07-23T06:06:24;26.17;;;22.48;;
36443;SDS011;24692;45.642;13.806;2022-07-23T06:08:50;25.30;;;22.23;;
36443;SDS011;24692;45.642;13.806;2022-07-23T06:11:15;25.88;;;23.27;;
36443;SDS011;24692;45.642;13.806;2022-07-23T06:13:41;26.40;;;23.35;;
36443;SDS011;24692;45.642;13.806;2022-07-23T06:16:07;27.75;;;24.77;;
36443;SDS011;24692;45.642;13.806;2022-07-23T06:18:32;25.77;;;23.08;;
36443;SDS011;24692;45.642;13.806;2022-07-23T06:20:58;27.83;;;24.92;;
36443;SDS011;24692;45.642;13.806;2022-07-23T06:23:24;28.02;;;23.02;;
36443;SDS011;24692;45.642;13.806;2022-07-23T06:25:49;27.20;;;24.30;;
36443;SDS011;24692;45.642;13.806;2022-07-23T06:28:15;28.67;;;25.77;;
36443;SDS011;24692;45.642;13.806;2022-07-23T06:30:40;28.83;;;25.88;;
36443;SDS011;24692;45.642;13.806;2022-07-23T06:33:06;34.13;;;28.15;;
36443;SDS011;24692;45.642;13.806;2022-07-23T06:35:32;31.55;;;28.35;;
36443;SDS011;24692;45.642;13.806;2022-07-23T06:37:59;32.70;;;29.27;;
36443;SDS011;24692;45.642;13.806;2022-07-23T06:40:24;32.63;;;29.40;;
36443;SDS011;24692;45.642;13.806;2022-07-23T06:42:50;33.00;;;29.42;;
36443;SDS011;24692;45.642;13.806;2022-07-23T06:45:16;34.03;;;30.42;;
36443;SDS011;24692;45.642;13.806;2022-07-23T06:47:42;32.97;;;29.55;;
36443;SDS011;24692;45.642;13.806;2022-07-23T06:50:08;37.10;;;32.75;;
36443;SDS011;24692;45.642;13.806;2022-07-23T06:52:34;43.25;;;34.42;;
36443;SDS011;24692;45.642;13.806;2022-07-23T06:55:00;35.63;;;31.88;;
36443;SDS011;24692;45.642;13.806;2022-07-23T06:57:25;35.38;;;31.60;;
36443;SDS011;24692;45.642;13.806;2022-07-23T06:59:51;34.47;;;30.80;;
36443;SDS011;24692;45.642;13.806;2022-07-23T07:02:18;33.72;;;30.15;;
36443;SDS011;24692;45.642;13.806;2022-07-23T07:04:43;37.90;;;30.98;;
36443;SDS011;24692;45.642;13.806;2022-07-23T07:07:09;37.50;;;32.95;;
36443;SDS011;24692;45.642;13.806;2022-07-23T07:09:35;42.00;;;33.17;;
36443;SDS011;24692;45.642;13.806;2022-07-23T07:12:00;37.80;;;32.80;;
36443;SDS011;24692;45.642;13.806;2022-07-23T07:14:26;34.60;;;30.90;;
36443;SDS011;24692;45.642;13.806;2022-07-23T07:16:52;34.65;;;30.92;;
36443;SDS011;24692;45.642;13.806;2022-07-23T07:19:18;42.92;;;34.00;;
36443;SDS011;24692;45.642;13.806;2022-07-23T07:21:43;35.88;;;32.00;;
36443;SDS011;24692;45.642;13.806;2022-07-23T07:24:09;35.42;;;30.80;;
36443;SDS011;24692;45.642;13.806;2022-07-23T07:26:36;32.92;;;29.23;;
36443;SDS011;24692;45.642;13.806;2022-07-23T07:29:03;34.65;;;30.30;;
36443;SDS011;24692;45.642;13.806;2022-07-23T07:31:29;34.58;;;31.15;;
36443;SDS011;24692;45.642;13.806;2022-07-23T07:33:55;34.63;;;31.02;;
36443;SDS011;24692;45.642;13.806;2022-07-23T07:36:22;37.55;;;31.15;;
36443;SDS011;24692;45.642;13.806;2022-07-23T07:38:47;40.35;;;35.00;;
36443;SDS011;24692;45.642;13.806;2022-07-23T07:41:13;38.53;;;34.47;;
36443;SDS011;24692;45.642;13.806;2022-07-23T07:43:39;41.83;;;37.22;;
36443;SDS011;24692;45.642;13.806;2022-07-23T07:46:05;39.42;;;35.42;;
36443;SDS011;24692;45.642;13.806;2022-07-23T07:48:35;36.13;;;32.42;;
36443;SDS011;24692;45.642;13.806;2022-07-23T07:51:03;36.00;;;32.13;;
36443;SDS011;24692;45.642;13.806;2022-07-23T07:53:29;37.85;;;33.85;;
36443;SDS011;24692;45.642;13.806;2022-07-23T07:55:55;37.80;;;33.72;;
36443;SDS011;24692;45.642;13.806;2022-07-23T07:58:21;37.60;;;33.70;;
36443;SDS011;24692;45.642;13.806;2022-07-23T08:00:47;40.00;;;35.70;;
36443;SDS011;24692;45.642;13.806;2022-07-23T08:03:13;45.35;;;40.42;;
36443;SDS011;24692;45.642;13.806;2022-07-23T08:05:38;39.35;;;35.25;;
36443;SDS011;24692;45.642;13.806;2022-07-23T08:08:04;40.20;;;35.85;;
36443;SDS011;24692;45.642;13.806;2022-07-23T08:10:30;39.90;;;35.78;;
36443;SDS011;24692;45.642;13.806;2022-07-23T08:12:56;28.88;;;25.83;;
36443;SDS011;24692;45.642;13.806;2022-07-23T08:15:24;30.30;;;27.30;;
36443;SDS011;24692;45.642;13.806;2022-07-23T08:17:51;27.33;;;24.33;;
36443;SDS011;24692;45.642;13.806;2022-07-23T08:20:18;27.33;;;24.20;;
36443;SDS011;24692;45.642;13.806;2022-07-23T08:22:49;22.50;;;20.13;;
36443;SDS011;24692;45.642;13.806;2022-07-23T08:25:26;24.70;;;22.23;;
36443;SDS011;24692;45.642;13.806;2022-07-23T08:27:56;21.92;;;19.73;;
36443;SDS011;24692;45.642;13.806;2022-07-23T08:30:24;21.50;;;19.30;;
36443;SDS011;24692;45.642;13.806;2022-07-23T08:32:51;21.92;;;19.77;;
36443;SDS011;24692;45.642;13.806;2022-07-23T08:35:29;21.25;;;19.08;;
36443;SDS011;24692;45.642;13.806;2022-07-23T08:37:58;21.40;;;19.20;;
36443;SDS011;24692;45.642;13.806;2022-07-23T08:40:26;21.33;;;19.10;;
36443;SDS011;24692;45.642;13.806;2022-07-23T08:42:53;21.13;;;18.95;;
36443;SDS011;24692;45.642;13.806;2022-07-23T08:45:19;20.63;;;18.73;;
36443;SDS011;24692;45.642;13.806;2022-07-23T08:47:50;26.38;;;19.27;;
36443;SDS011;24692;45.642;13.806;2022-07-23T08:50:18;20.23;;;18.13;;
36443;SDS011;24692;45.642;13.806;2022-07-23T08:52:44;19.45;;;17.50;;
36443;SDS011;24692;45.642;13.806;2022-07-23T08:55:10;21.40;;;18.75;;
36443;SDS011;24692;45.642;13.806;2022-07-23T08:57:36;20.30;;;18.27;;
36443;SDS011;24692;45.642;13.806;2022-07-23T09:00:03;19.55;;;17.30;;
36443;SDS011;24692;45.642;13.806;2022-07-23T09:02:29;21.33;;;19.35;;
36443;SDS011;24692;45.642;13.806;2022-07-23T09:04:55;21.10;;;18.70;;
36443;SDS011;24692;45.642;13.806;2022-07-23T09:07:21;20.83;;;18.67;;
36443;SDS011;24692;45.642;13.806;2022-07-23T09:09:46;20.25;;;18.30;;
36443;SDS011;24692;45.642;13.806;2022-07-23T09:12:22;19.45;;;17.25;;
36443;SDS011;24692;45.642;13.806;2022-07-23T09:14:51;18.33;;;16.35;;
36443;SDS011;24692;45.642;13.806;2022-07-23T09:17:17;19.73;;;17.30;;
36443;SDS011;24692;45.642;13.806;2022-07-23T09:19:44;18.83;;;16.85;;
36443;SDS011;24692;45.642;13.806;2022-07-23T09:22:23;16.70;;;15.00;;
36443;SDS011;24692;45.642;13.806;2022-07-23T09:30:21;16.42;;;14.70;;
36443;SDS011;24692;45.642;13.806;2022-07-23T09:33:07;16.60;;;14.30;;
36443;SDS011;24692;45.642;13.806;2022-07-23T09:35:52;17.00;;;14.93;;
36443;SDS011;24692;45.642;13.806;2022-07-23T09:38:21;17.38;;;14.93;;
36443;SDS011;24692;45.642;13.806;2022-07-23T09:43:34;15.32;;;13.73;;
36443;SDS011;24692;45.642;13.806;2022-07-23T09:46:42;15.18;;;13.68;;
36443;SDS011;24692;45.642;13.806;2022-07-23T09:48:50;16.85;;;14.20;;
36443;SDS011;24692;45.642;13.806;2022-07-23T09:51:21;14.30;;;12.43;;
36443;SDS011;24692;45.642;13.806;2022-07-23T09:54:02;14.65;;;13.10;;
36443;SDS011;24692;45.642;13.806;2022-07-23T09:56:29;14.55;;;13.10;;
36443;SDS011;24692;45.642;13.806;2022-07-23T09:58:55;15.80;;;14.20;;
36443;SDS011;24692;45.642;13.806;2022-07-23T10:01:32;14.90;;;13.40;;
36443;SDS011;24692;45.642;13.806;2022-07-23T10:03:58;15.45;;;12.88;;
36443;SDS011;24692;45.642;13.806;2022-07-23T10:06:25;15.40;;;13.82;;
36443;SDS011;24692;45.642;13.806;2022-07-23T10:08:53;14.43;;;13.13;;
36443;SDS011;24692;45.642;13.806;2022-07-23T10:11:23;14.48;;;12.95;;
36443;SDS011;24692;45.642;13.806;2022-07-23T10:13:50;14.50;;;13.02;;
36443;SDS011;24692;45.642;13.806;2022-07-23T10:16:19;15.25;;;12.95;;
36443;SDS011;24692;45.642;13.806;2022-07-23T10:18:46;14.45;;;12.95;;
36443;SDS011;24692;45.642;13.806;2022-07-23T10:21:12;15.73;;;13.60;;
36443;SDS011;24692;45.642;13.806;2022-07-23T10:23:47;14.32;;;12.95;;
36443;SDS011;24692;45.642;13.806;2022-07-23T10:29:06;16.30;;;12.95;;
36443;SDS011;24692;45.642;13.806;2022-07-23T10:32:04;13.73;;;12.45;;
36443;SDS011;24692;45.642;13.806;2022-07-23T10:37:55;15.27;;;13.25;;
36443;SDS011;24692;45.642;13.806;2022-07-23T10:40:17;13.63;;;12.25;;
36443;SDS011;24692;45.642;13.806;2022-07-23T10:42:45;12.35;;;11.25;;
36443;SDS011;24692;45.642;13.806;2022-07-23T10:48:12;12.90;;;11.60;;
36443;SDS011;24692;45.642;13.806;2022-07-23T10:50:39;12.60;;;11.38;;
36443;SDS011;24692;45.642;13.806;2022-07-23T10:58:03;12.80;;;11.57;;
36443;SDS011;24692;45.642;13.806;2022-07-23T11:00:31;13.52;;;11.18;;
36443;SDS011;24692;45.642;13.806;2022-07-23T11:03:01;12.27;;;10.70;;
36443;SDS011;24692;45.642;13.806;2022-07-23T11:05:45;13.07;;;11.88;;
36443;SDS011;24692;45.642;13.806;2022-07-23T11:08:15;12.77;;;11.45;;
36443;SDS011;24692;45.642;13.806;2022-07-23T11:16:41;13.52;;;11.95;;
36443;SDS011;24692;45.642;13.806;2022-07-23T11:37:02;13.93;;;12.65;;
36443;SDS011;24692;45.642;13.806;2022-07-23T11:39:29;13.27;;;12.18;;
36443;SDS011;24692;45.642;13.806;2022-07-23T11:41:56;16.80;;;13.52;;
36443;SDS011;24692;45.642;13.806;2022-07-23T11:44:27;16.80;;;12.75;;
36443;SDS011;24692;45.642;13.806;2022-07-23T11:46:57;13.45;;;12.15;;
36443;SDS011;24692;45.642;13.806;2022-07-23T11:49:27;14.52;;;11.50;;
36443;SDS011;24692;45.642;13.806;2022-07-23T11:52:07;12.07;;;10.70;;
36443;SDS011;24692;45.642;13.806;2022-07-23T11:54:47;11.57;;;10.38;;
36443;SDS011;24692;45.642;13.806;2022-07-23T11:57:17;14.68;;;11.15;;
36443;SDS011;24692;45.642;13.806;2022-07-23T11:59:45;11.40;;;10.30;;
36443;SDS011;24692;45.642;13.806;2022-07-23T12:02:14;11.88;;;10.70;;
36443;SDS011;24692;45.642;13.806;2022-07-23T12:04:44;12.48;;;11.15;;
36443;SDS011;24692;45.642;13.806;2022-07-23T12:09:48;12.90;;;11.57;;
36443;SDS011;24692;45.642;13.806;2022-07-23T12:12:14;14.15;;;12.68;;
36443;SDS011;24692;45.642;13.806;2022-07-23T12:14:53;14.63;;;13.02;;
36443;SDS011;24692;45.642;13.806;2022-07-23T12:17:30;15.35;;;13.70;;
36443;SDS011;24692;45.642;13.806;2022-07-23T12:19:58;13.52;;;12.13;;
36443;SDS011;24692;45.642;13.806;2022-07-23T12:22:26;12.52;;;11.35;;
36443;SDS011;24692;45.642;13.806;2022-07-23T12:25:04;14.85;;;10.25;;
36443;SDS011;24692;45.642;13.806;2022-07-23T12:27:32;13.80;;;10.30;;
36443;SDS011;24692;45.642;13.806;2022-07-23T12:29:58;11.75;;;10.55;;
36443;SDS011;24692;45.642;13.806;2022-07-23T12:32:42;14.57;;;11.45;;
36443;SDS011;24692;45.642;13.806;2022-07-23T12:35:09;13.02;;;10.23;;
36443;SDS011;24692;45.642;13.806;2022-07-23T12:37:36;12.27;;;9.70;;
36443;SDS011;24692;45.642;13.806;2022-07-23T12:42:50;13.35;;;9.38;;
36443;SDS011;24692;45.642;13.806;2022-07-23T12:45:17;9.55;;;8.65;;
36443;SDS011;24692;45.642;13.806;2022-07-23T12:47:50;9.35;;;8.45;;
36443;SDS011;24692;45.642;13.806;2022-07-23T12:55:42;10.63;;;9.57;;
36443;SDS011;24692;45.642;13.806;2022-07-23T12:58:32;9.23;;;8.43;;
36443;SDS011;24692;45.642;13.806;2022-07-23T13:01:21;9.40;;;8.38;;
36443;SDS011;24692;45.642;13.806;2022-07-23T13:06:33;12.02;;;8.25;;
36443;SDS011;24692;45.642;13.806;2022-07-23T13:09:23;8.52;;;7.68;;
36443;SDS011;24692;45.642;13.806;2022-07-23T13:11:51;8.07;;;7.38;;
36443;SDS011;24692;45.642;13.806;2022-07-23T13:14:19;9.23;;;8.30;;
36443;SDS011;24692;45.642;13.806;2022-07-23T13:16:46;9.20;;;7.50;;
36443;SDS011;24692;45.642;13.806;2022-07-23T13:19:13;8.77;;;7.32;;
36443;SDS011;24692;45.642;13.806;2022-07-23T13:21:39;10.30;;;8.00;;
36443;SDS011;24692;45.642;13.806;2022-07-23T13:24:07;8.65;;;7.13;;
36443;SDS011;24692;45.642;13.806;2022-07-23T13:26:34;11.35;;;7.68;;
36443;SDS011;24692;45.642;13.806;2022-07-23T13:28:59;14.05;;;7.68;;
36443;SDS011;24692;45.642;13.806;2022-07-23T13:31:25;8.27;;;6.57;;
36443;SDS011;24692;45.642;13.806;2022-07-23T13:33:51;7.38;;;6.40;;
36443;SDS011;24692;45.642;13.806;2022-07-23T13:36:16;8.07;;;6.40;;
36443;SDS011;24692;45.642;13.806;2022-07-23T13:38:42;7.53;;;6.75;;
36443;SDS011;24692;45.642;13.806;2022-07-23T13:41:08;8.07;;;6.93;;
36443;SDS011;24692;45.642;13.806;2022-07-23T13:43:33;7.90;;;7.03;;
36443;SDS011;24692;45.642;13.806;2022-07-23T13:45:59;9.52;;;7.00;;
36443;SDS011;24692;45.642;13.806;2022-07-23T13:48:25;8.27;;;7.03;;
36443;SDS011;24692;45.642;13.806;2022-07-23T13:50:51;8.05;;;6.65;;
36443;SDS011;24692;45.642;13.806;2022-07-23T13:53:18;7.43;;;6.40;;
36443;SDS011;24692;45.642;13.806;2022-07-23T13:55:45;8.30;;;5.70;;
36443;SDS011;24692;45.642;13.806;2022-07-23T13:58:12;6.90;;;6.20;;
36443;SDS011;24692;45.642;13.806;2022-07-23T14:00:39;7.95;;;6.07;;
36443;SDS011;24692;45.642;13.806;2022-07-23T14:03:08;6.78;;;6.18;;
36443;SDS011;24692;45.642;13.806;2022-07-23T14:05:34;7.65;;;6.22;;
36443;SDS011;24692;45.642;13.806;2022-07-23T14:08:00;9.35;;;6.30;;
36443;SDS011;24692;45.642;13.806;2022-07-23T14:10:26;7.88;;;5.47;;
36443;SDS011;24692;45.642;13.806;2022-07-23T14:12:51;7.60;;;4.95;;
36443;SDS011;24692;45.642;13.806;2022-07-23T14:15:22;6.55;;;4.95;;
36443;SDS011;24692;45.642;13.806;2022-07-23T14:17:48;5.78;;;5.05;;
36443;SDS011;24692;45.642;13.806;2022-07-23T14:20:14;7.05;;;5.03;;
36443;SDS011;24692;45.642;13.806;2022-07-23T14:22:40;6.65;;;4.97;;
36443;SDS011;24692;45.642;13.806;2022-07-23T14:25:06;6.07;;;4.72;;
36443;SDS011;24692;45.642;13.806;2022-07-23T14:27:33;6.88;;;4.63;;
36443;SDS011;24692;45.642;13.806;2022-07-23T14:29:59;4.32;;;3.72;;
36443;SDS011;24692;45.642;13.806;2022-07-23T14:32:25;5.03;;;3.67;;
36443;SDS011;24692;45.642;13.806;2022-07-23T14:34:51;5.40;;;4.18;;
36443;SDS011;24692;45.642;13.806;2022-07-23T14:37:17;5.05;;;4.25;;
36443;SDS011;24692;45.642;13.806;2022-07-23T14:39:44;8.13;;;4.45;;
36443;SDS011;24692;45.642;13.806;2022-07-23T14:42:10;5.18;;;4.60;;
36443;SDS011;24692;45.642;13.806;2022-07-23T14:44:36;5.93;;;4.22;;
36443;SDS011;24692;45.642;13.806;2022-07-23T14:47:02;8.00;;;4.43;;
36443;SDS011;24692;45.642;13.806;2022-07-23T14:49:29;7.40;;;4.60;;
36443;SDS011;24692;45.642;13.806;2022-07-23T14:51:56;5.13;;;4.63;;
36443;SDS011;24692;45.642;13.806;2022-07-23T14:54:22;6.13;;;4.97;;
36443;SDS011;24692;45.642;13.806;2022-07-23T14:56:50;6.75;;;4.20;;
36443;SDS011;24692;45.642;13.806;2022-07-23T14:59:17;6.40;;;3.90;;
36443;SDS011;24692;45.642;13.806;2022-07-23T15:01:43;5.53;;;3.80;;
36443;SDS011;24692;45.642;13.806;2022-07-23T15:04:08;5.05;;;4.05;;
36443;SDS011;24692;45.642;13.806;2022-07-23T15:06:34;4.85;;;4.10;;
36443;SDS011;24692;45.642;13.806;2022-07-23T15:09:00;4.40;;;3.90;;
36443;SDS011;24692;45.642;13.806;2022-07-23T15:11:28;5.25;;;4.07;;
36443;SDS011;24692;45.642;13.806;2022-07-23T15:13:57;7.28;;;3.80;;